You are listening to:
RJTT App/Dep - Tokyo, Japan

RJTT 221900Z 19017KT 9999 -SHRA FEW010 BKN025 22/20 Q1004 TEMPO FEW008 BKN012

If stream doesn't start automatically press the play button
If stream stops then reload player then press play